Time;durP1;ratioP1;P1;durP2;ratioP2;P2;SDS_P1;SDS_P2;PMS_P1;PMS_P2;Temp;Humidity;BMP_temperature;BMP_pressure;BME280_temperature;BME280_humidity;BME280_pressure;Samples;Min_cycle;Max_cycle;Signal;HPM_P1;HPM_P2
2021/04/17 00:01:47;;;;;;;5.78;3.05;;;6.70;99.90;;;;;;5066032;28;20217;-37
2021/04/17 00:04:14;;;;;;;5.53;3.05;;;6.60;99.90;;;;;;5067104;28;20283;-37
2021/04/17 00:06:41;;;;;;;5.70;3.30;;;6.50;99.90;;;;;;5066409;28;20211;-36
2021/04/17 00:09:11;;;;;;;3.75;2.78;;;6.70;99.90;;;;;;5067718;28;20703;-36
2021/04/17 00:11:39;;;;;;;5.45;3.05;;;6.80;99.90;;;;;;5064755;28;20221;-36
2021/04/17 00:14:07;;;;;;;4.53;3.13;;;6.90;99.90;;;;;;5068359;28;20214;-36
2021/04/17 00:16:34;;;;;;;6.47;3.25;;;6.90;99.90;;;;;;5069263;28;20186;-36
2021/04/17 00:19:01;;;;;;;4.93;2.67;;;6.70;99.90;;;;;;5071783;28;20655;-37
2021/04/17 00:21:28;;;;;;;2.78;2.45;;;6.50;99.90;;;;;;5062616;28;20701;-35
2021/04/17 00:23:55;;;;;;;6.80;3.10;;;6.30;99.90;;;;;;5065365;28;20191;-38
2021/04/17 00:26:21;;;;;;;3.83;3.15;;;6.40;99.90;;;;;;5069462;28;20677;-36
2021/04/17 00:28:49;;;;;;;4.07;3.17;;;6.30;99.90;;;;;;5071322;28;20218;-35
2021/04/17 00:31:15;;;;;;;6.68;3.10;;;6.30;99.90;;;;;;5072242;28;20236;-36
2021/04/17 00:33:42;;;;;;;6.88;3.38;;;6.10;99.90;;;;;;5060013;28;20195;-35
2021/04/17 00:36:09;;;;;;;4.55;2.97;;;5.90;99.90;;;;;;5070327;28;20198;-36
2021/04/17 00:38:36;;;;;;;3.70;3.30;;;5.80;99.90;;;;;;5070977;28;20251;-35
2021/04/17 00:41:03;;;;;;;4.28;3.78;;;5.90;99.90;;;;;;5071429;28;20218;-36
2021/04/17 00:43:30;;;;;;;4.93;2.90;;;6.00;99.90;;;;;;5070800;28;20194;-36
2021/04/17 00:45:58;;;;;;;3.85;2.50;;;5.70;99.90;;;;;;5057560;28;20304;-35
2021/04/17 00:48:25;;;;;;;4.45;2.90;;;5.30;99.90;;;;;;5070257;28;20260;-36
2021/04/17 00:50:52;;;;;;;5.13;3.08;;;5.20;99.90;;;;;;5069731;28;20305;-37
2021/04/17 00:53:21;;;;;;;4.97;3.28;;;5.10;99.90;;;;;;5060781;28;20209;-36
2021/04/17 00:55:50;;;;;;;4.32;2.63;;;5.10;99.90;;;;;;5070248;28;20658;-36
2021/04/17 00:58:17;;;;;;;4.07;3.50;;;4.90;99.90;;;;;;5066980;28;20207;-35
2021/04/17 01:00:44;;;;;;;5.85;3.17;;;4.90;99.90;;;;;;5055139;28;20212;-35
2021/04/17 01:03:19;;;;;;;3.88;3.53;;;4.80;99.90;;;;;;5054633;28;20199;-34
2021/04/17 01:05:48;;;;;;;8.63;4.30;;;4.80;99.90;;;;;;5061046;28;20214;-34
2021/04/17 01:08:28;;;;;;;5.55;3.17;;;4.80;99.90;;;;;;5059234;28;20203;-34
2021/04/17 01:10:57;;;;;;;4.80;3.15;;;4.90;99.90;;;;;;5051968;28;20245;-36
2021/04/17 01:13:24;;;;;;;3.33;3.03;;;4.80;99.90;;;;;;5066939;28;20194;-35
2021/04/17 01:15:52;;;;;;;7.90;3.65;;;4.90;99.90;;;;;;5066862;28;20196;-35
2021/04/17 01:18:22;;;;;;;3.75;2.95;;;4.80;99.90;;;;;;5050701;28;20229;-34
2021/04/17 01:20:52;;;;;;;3.83;2.95;;;4.70;99.90;;;;;;5052246;28;20265;-34
2021/04/17 01:23:28;;;;;;;4.22;2.95;;;4.80;99.90;;;;;;5062118;28;20207;-34
2021/04/17 01:25:59;;;;;;;4.57;3.35;;;4.80;99.90;;;;;;5066686;28;20229;-35
2021/04/17 01:28:30;;;;;;;5.40;3.40;;;5.00;99.90;;;;;;5057444;28;20281;-34
2021/04/17 01:31:00;;;;;;;3.28;3.00;;;5.20;99.90;;;;;;5068696;28;20238;-34
2021/04/17 01:33:30;;;;;;;4.10;3.03;;;5.10;99.90;;;;;;5065167;28;20700;-35
2021/04/17 01:35:58;;;;;;;4.32;2.80;;;5.00;99.90;;;;;;5069407;28;20198;-35
2021/04/17 01:38:27;;;;;;;3.35;3.05;;;4.90;99.90;;;;;;5071675;28;20198;-35
2021/04/17 01:40:59;;;;;;;5.13;3.03;;;4.80;99.90;;;;;;5069245;28;20775;-35
2021/04/17 01:43:28;;;;;;;3.00;2.58;;;4.80;99.90;;;;;;5061774;28;20197;-35
2021/04/17 01:45:58;;;;;;;4.90;4.00;;;5.00;99.90;;;;;;5065197;28;20312;-35
2021/04/17 01:48:28;;;;;;;4.13;2.70;;;5.10;99.90;;;;;;5070454;28;20202;-35
2021/04/17 01:50:57;;;;;;;3.00;2.80;;;5.00;99.90;;;;;;5051045;28;20230;-36
2021/04/17 01:53:28;;;;;;;3.13;2.80;;;5.10;99.90;;;;;;5070130;28;20202;-35
2021/04/17 01:55:57;;;;;;;4.78;3.03;;;5.10;99.90;;;;;;5068400;28;20195;-36
2021/04/17 01:58:27;;;;;;;5.88;2.88;;;5.10;99.90;;;;;;5070855;28;20203;-34
2021/04/17 02:00:55;;;;;;;5.30;3.20;;;5.00;99.90;;;;;;5055497;28;20253;-34
2021/04/17 02:03:22;;;;;;;3.72;2.97;;;4.90;99.90;;;;;;5059332;28;20229;-36
2021/04/17 02:05:49;;;;;;;6.97;2.83;;;5.00;99.90;;;;;;5052220;28;20551;-34
2021/04/17 02:08:17;;;;;;;4.45;2.92;;;5.10;99.90;;;;;;5066006;28;20212;-36
2021/04/17 02:10:44;;;;;;;6.32;3.10;;;5.20;99.90;;;;;;5057183;28;20261;-36
2021/04/17 02:13:13;;;;;;;3.85;2.95;;;5.20;99.90;;;;;;5051284;28;20281;-36
2021/04/17 02:15:40;;;;;;;7.57;4.07;;;5.20;99.90;;;;;;5053003;28;20563;-35
2021/04/17 02:18:14;;;;;;;5.47;3.25;;;5.10;99.90;;;;;;5068491;28;20202;-36
2021/04/17 02:20:44;;;;;;;9.40;3.17;;;5.00;99.90;;;;;;5070783;28;20214;-34
2021/04/17 02:23:12;;;;;;;4.43;2.88;;;5.00;99.90;;;;;;5066648;28;20222;-35
2021/04/17 02:25:39;;;;;;;4.18;2.65;;;5.10;99.90;;;;;;5053120;28;20209;-36
2021/04/17 02:28:07;;;;;;;5.72;3.28;;;4.90;99.90;;;;;;5059369;28;20202;-36
2021/04/17 02:30:37;;;;;;;4.32;2.95;;;5.10;99.90;;;;;;5059507;28;20226;-35
2021/04/17 02:33:05;;;;;;;4.97;2.75;;;4.80;99.90;;;;;;5060804;28;20194;-36
2021/04/17 02:35:31;;;;;;;3.92;2.63;;;4.80;99.90;;;;;;5066793;28;20738;-35
2021/04/17 02:37:58;;;;;;;3.00;2.55;;;4.70;99.90;;;;;;5062891;28;20214;-36
2021/04/17 02:40:26;;;;;;;5.43;3.47;;;4.70;99.90;;;;;;5056710;28;20219;-36
2021/04/17 02:42:53;;;;;;;2.78;2.58;;;4.90;99.90;;;;;;5058546;28;20702;-34
2021/04/17 02:45:20;;;;;;;4.63;2.60;;;5.00;99.90;;;;;;5068875;28;20194;-36
2021/04/17 02:47:47;;;;;;;7.55;3.03;;;4.80;99.90;;;;;;5060270;28;20666;-35
2021/04/17 02:50:14;;;;;;;4.57;3.17;;;4.80;99.90;;;;;;5065395;28;20291;-36
2021/04/17 02:52:41;;;;;;;4.80;3.15;;;4.70;99.90;;;;;;5057966;28;20207;-35
2021/04/17 02:55:09;;;;;;;8.43;3.28;;;4.80;99.90;;;;;;5064347;28;20199;-38
2021/04/17 02:57:37;;;;;;;3.83;2.78;;;4.90;99.90;;;;;;5055616;28;20645;-33
2021/04/17 03:00:06;;;;;;;3.75;3.00;;;5.00;99.90;;;;;;5049451;28;20241;-35
2021/04/17 03:02:33;;;;;;;4.13;2.83;;;4.80;99.90;;;;;;5050811;28;20191;-35
2021/04/17 03:05:01;;;;;;;5.35;3.35;;;4.70;99.90;;;;;;5049773;28;20374;-35
2021/04/17 03:07:27;;;;;;;3.53;2.70;;;4.70;99.90;;;;;;5059507;28;20215;-34
2021/04/17 03:09:54;;;;;;;7.45;3.58;;;4.90;99.90;;;;;;5067313;28;20199;-34
2021/04/17 03:12:21;;;;;;;5.47;2.53;;;4.80;99.90;;;;;;5055145;28;20191;-36
2021/04/17 03:14:48;;;;;;;5.10;4.20;;;4.50;99.90;;;;;;5050504;28;20659;-35
2021/04/17 03:17:15;;;;;;;4.97;3.25;;;4.40;99.90;;;;;;5068121;28;20209;-34
2021/04/17 03:19:42;;;;;;;4.05;3.40;;;4.30;99.90;;;;;;5050284;28;20214;-35
2021/04/17 03:22:10;;;;;;;3.72;3.42;;;4.30;99.90;;;;;;5064209;28;20242;-34
2021/04/17 03:24:37;;;;;;;4.63;3.38;;;4.40;99.90;;;;;;5057760;28;20191;-35
2021/04/17 03:27:05;;;;;;;4.20;2.92;;;4.60;99.90;;;;;;5055339;28;20318;-34
2021/04/17 03:29:32;;;;;;;4.63;3.35;;;4.60;99.90;;;;;;5069140;28;20199;-36
2021/04/17 03:31:59;;;;;;;9.25;2.75;;;4.50;99.90;;;;;;5055448;28;20220;-35
2021/04/17 03:34:26;;;;;;;2.90;2.63;;;4.70;99.90;;;;;;5050935;28;20285;-35
2021/04/17 03:36:53;;;;;;;4.85;3.05;;;4.60;99.90;;;;;;5049748;28;20202;-35
2021/04/17 03:39:20;;;;;;;3.47;3.17;;;4.50;99.90;;;;;;5048953;28;20199;-35
2021/04/17 03:41:47;;;;;;;4.15;3.33;;;4.50;99.90;;;;;;5050056;28;20259;-35
2021/04/17 03:44:14;;;;;;;5.82;3.45;;;4.40;99.90;;;;;;5059889;28;20684;-36
2021/04/17 03:46:40;;;;;;;7.60;3.53;;;4.40;99.90;;;;;;5067530;28;20210;-36
2021/04/17 03:49:07;;;;;;;3.88;3.13;;;4.40;99.90;;;;;;5072578;28;20721;-35
2021/04/17 03:51:34;;;;;;;3.55;3.17;;;4.70;99.90;;;;;;5056977;28;20583;-37
2021/04/17 03:54:00;;;;;;;4.13;3.65;;;4.70;99.90;;;;;;5062315;28;20196;-36
2021/04/17 03:56:28;;;;;;;5.22;3.13;;;4.70;99.90;;;;;;5061866;28;20245;-34
2021/04/17 03:58:55;;;;;;;6.65;4.50;;;4.70;99.90;;;;;;5065876;28;20199;-35
2021/04/17 04:01:22;;;;;;;3.80;3.40;;;4.70;99.90;;;;;;5053080;28;20236;-35
2021/04/17 04:03:48;;;;;;;5.57;4.07;;;4.70;99.90;;;;;;5061476;28;20195;-36
2021/04/17 04:06:15;;;;;;;4.20;3.50;;;4.60;99.90;;;;;;5072744;28;20821;-34
2021/04/17 04:08:42;;;;;;;6.70;4.05;;;4.70;99.90;;;;;;5070601;28;20316;-35
2021/04/17 04:11:08;;;;;;;5.40;3.33;;;4.70;99.90;;;;;;5062440;28;20207;-36
2021/04/17 04:13:36;;;;;;;5.30;3.15;;;4.70;99.90;;;;;;5065796;28;20646;-36
2021/04/17 04:16:02;;;;;;;4.45;3.55;;;4.70;99.90;;;;;;5052748;28;20659;-34
2021/04/17 04:18:29;;;;;;;4.38;3.42;;;4.70;99.90;;;;;;5064947;28;20256;-35
2021/04/17 04:20:57;;;;;;;8.35;3.97;;;4.60;99.90;;;;;;5064088;28;20239;-36
2021/04/17 04:23:23;;;;;;;5.35;4.47;;;4.60;99.90;;;;;;5053830;28;20757;-34
2021/04/17 04:25:50;;;;;;;5.88;3.88;;;4.70;99.90;;;;;;5052761;28;20199;-34
2021/04/17 04:28:17;;;;;;;6.82;4.20;;;4.50;99.90;;;;;;5067179;28;20206;-35
2021/04/17 04:30:44;;;;;;;5.88;4.07;;;4.50;99.90;;;;;;5066665;28;20219;-35
2021/04/17 04:33:12;;;;;;;6.22;3.33;;;4.60;99.90;;;;;;5052662;28;20538;-34
2021/04/17 04:35:38;;;;;;;10.13;4.85;;;4.70;99.90;;;;;;5059988;28;20264;-35
2021/04/17 04:38:05;;;;;;;6.38;3.60;;;4.60;99.90;;;;;;5063499;28;20187;-35
2021/04/17 04:40:32;;;;;;;3.92;3.53;;;4.80;99.90;;;;;;5068420;28;20222;-35
2021/04/17 04:42:59;;;;;;;6.18;4.53;;;5.10;99.90;;;;;;5053380;28;20249;-34
2021/04/17 04:45:25;;;;;;;15.38;10.50;;;5.30;99.90;;;;;;5066802;28;20802;-35
2021/04/17 04:47:52;;;;;;;5.03;3.45;;;5.10;99.90;;;;;;5068124;28;20211;-35
2021/04/17 04:50:19;;;;;;;3.50;3.20;;;5.00;99.90;;;;;;5057470;28;20219;-36
2021/04/17 04:52:46;;;;;;;6.28;3.65;;;5.00;99.90;;;;;;5070233;28;20692;-34
2021/04/17 04:55:14;;;;;;;5.90;3.83;;;4.90;99.90;;;;;;5070794;28;20226;-34
2021/04/17 04:57:41;;;;;;;5.28;3.58;;;5.00;99.90;;;;;;5071598;28;20250;-35
2021/04/17 05:00:09;;;;;;;6.28;3.50;;;5.00;99.90;;;;;;5053030;28;20199;-36
2021/04/17 05:02:36;;;;;;;5.07;4.28;;;5.00;99.90;;;;;;5052790;28;20260;-36
2021/04/17 05:05:05;;;;;;;5.53;4.10;;;5.10;99.90;;;;;;5052613;28;20596;-35
2021/04/17 05:07:32;;;;;;;5.35;4.25;;;5.00;99.90;;;;;;5051646;28;20546;-35
2021/04/17 05:09:58;;;;;;;6.32;4.30;;;5.00;99.90;;;;;;5066020;28;20278;-35
2021/04/17 05:12:25;;;;;;;15.60;4.88;;;5.00;99.90;;;;;;5069963;28;20203;-35
2021/04/17 05:14:52;;;;;;;7.78;5.72;;;4.80;99.90;;;;;;5057516;28;20257;-35
2021/04/17 05:17:19;;;;;;;6.05;4.22;;;4.80;99.90;;;;;;5053088;28;20217;-34
2021/04/17 05:19:45;;;;;;;11.13;4.05;;;4.90;99.90;;;;;;5070640;28;20206;-36
2021/04/17 05:22:13;;;;;;;9.23;4.78;;;5.00;99.90;;;;;;5051492;28;20215;-37
2021/04/17 05:24:40;;;;;;;7.72;4.65;;;4.90;99.90;;;;;;5052576;28;20229;-36
2021/04/17 05:27:07;;;;;;;8.88;5.20;;;4.90;99.90;;;;;;5052024;28;20211;-34
2021/04/17 05:29:33;;;;;;;6.28;5.22;;;5.00;99.90;;;;;;5058375;28;20691;-34
2021/04/17 05:32:00;;;;;;;9.50;5.53;;;5.10;99.90;;;;;;5050540;28;20207;-34
2021/04/17 05:34:27;;;;;;;6.95;5.35;;;5.00;99.90;;;;;;5051461;28;20265;-35
2021/04/17 05:36:54;;;;;;;5.32;4.15;;;5.00;99.90;;;;;;5051339;28;20240;-33
2021/04/17 05:39:22;;;;;;;5.80;5.05;;;5.00;99.90;;;;;;5069514;28;20508;-34
2021/04/17 05:41:48;;;;;;;7.10;4.57;;;5.10;99.90;;;;;;5069236;28;20540;-36
2021/04/17 05:44:15;;;;;;;9.02;5.72;;;5.00;99.90;;;;;;5065235;28;20210;-35
2021/04/17 05:46:43;;;;;;;7.47;5.15;;;5.10;99.90;;;;;;5049679;28;20765;-34
2021/04/17 05:49:11;;;;;;;7.25;5.57;;;5.10;99.90;;;;;;5063428;28;20195;-34
2021/04/17 05:51:40;;;;;;;5.70;5.15;;;5.10;99.90;;;;;;5068168;28;20226;-35
2021/04/17 05:54:08;;;;;;;6.30;5.70;;;5.20;99.90;;;;;;5059268;28;20195;-34
2021/04/17 05:56:35;;;;;;;8.52;6.47;;;5.20;99.90;;;;;;5065281;28;20282;-35
2021/04/17 05:59:03;;;;;;;8.85;5.78;;;5.20;99.90;;;;;;5068379;28;20247;-36
2021/04/17 06:01:30;;;;;;;6.80;5.68;;;5.10;99.90;;;;;;5070242;28;20301;-36
2021/04/17 06:03:57;;;;;;;11.25;6.18;;;5.20;99.90;;;;;;5054008;28;20203;-36
2021/04/17 06:06:24;;;;;;;7.45;5.90;;;5.20;99.90;;;;;;5057821;28;20243;-35
2021/04/17 06:08:50;;;;;;;9.23;6.53;;;5.20;99.90;;;;;;5059268;28;20290;-34
2021/04/17 06:11:17;;;;;;;9.65;6.03;;;5.20;99.90;;;;;;5069873;28;20222;-35
2021/04/17 06:13:45;;;;;;;10.02;6.30;;;5.20;99.90;;;;;;5055066;28;20731;-34
2021/04/17 06:16:12;;;;;;;7.95;6.03;;;5.30;99.90;;;;;;5052095;28;20266;-37
2021/04/17 06:18:39;;;;;;;10.70;6.88;;;5.40;99.90;;;;;;5069770;28;20447;-35
2021/04/17 06:21:06;;;;;;;10.48;6.57;;;5.50;99.90;;;;;;5068464;28;20297;-35
2021/04/17 06:23:34;;;;;;;7.63;6.43;;;5.60;99.90;;;;;;5065669;28;20211;-36
2021/04/17 06:26:01;;;;;;;9.95;7.47;;;5.60;99.90;;;;;;5051721;28;20682;-36
2021/04/17 06:28:29;;;;;;;9.02;6.57;;;5.50;99.90;;;;;;5069823;28;20190;-35
2021/04/17 06:30:56;;;;;;;8.80;7.15;;;5.60;99.90;;;;;;5067742;28;20772;-36
2021/04/17 06:33:23;;;;;;;9.75;6.75;;;5.60;99.90;;;;;;5062158;28;20203;-34
2021/04/17 06:35:50;;;;;;;7.10;6.35;;;5.80;99.90;;;;;;5050494;28;20230;-37
2021/04/17 06:38:17;;;;;;;9.90;6.22;;;5.90;99.90;;;;;;5069607;28;20198;-34
2021/04/17 06:40:45;;;;;;;7.53;6.82;;;5.90;99.90;;;;;;5062752;28;20211;-35
2021/04/17 06:43:12;;;;;;;14.88;7.10;;;6.00;99.90;;;;;;5054634;28;20282;-34
2021/04/17 06:45:40;;;;;;;10.95;7.60;;;6.20;99.90;;;;;;5062251;28;20693;-35
2021/04/17 06:48:09;;;;;;;8.10;7.28;;;6.10;99.90;;;;;;5069709;28;20325;-34
2021/04/17 06:50:38;;;;;;;9.88;7.65;;;6.20;99.90;;;;;;5074955;22;20233;-78
2021/04/17 06:53:20;;;;;;;10.07;7.10;;;6.40;99.90;;;;;;5128037;27;20597;-35
2021/04/17 06:55:58;;;;;;;8.48;7.57;;;6.50;99.90;;;;;;5108190;27;20578;-35
2021/04/17 06:58:38;;;;;;;9.10;6.38;;;6.40;99.90;;;;;;5108094;27;20920;-36
2021/04/17 07:01:17;;;;;;;8.30;7.50;;;6.50;99.90;;;;;;5108036;27;20540;-34
2021/04/17 07:03:59;;;;;;;10.45;6.40;;;6.50;99.90;;;;;;5108020;27;20549;-35
2021/04/17 07:06:38;;;;;;;10.00;6.57;;;6.60;99.90;;;;;;5108313;27;20509;-36
2021/04/17 07:09:16;;;;;;;11.27;6.03;;;6.90;99.90;;;;;;5149136;27;20518;-36
2021/04/17 07:11:54;;;;;;;8.18;6.53;;;6.70;99.90;;;;;;5127988;27;20931;-35
2021/04/17 07:14:44;;;;;;;9.45;6.60;;;6.60;99.90;;;;;;5108418;27;20517;-36
2021/04/17 07:17:23;;;;;;;8.45;6.75;;;6.70;99.90;;;;;;5149398;27;20514;-37
2021/04/17 07:20:08;;;;;;;10.13;6.78;;;6.60;99.90;;;;;;5149573;27;20587;-35
2021/04/17 07:22:46;;;;;;;12.25;8.07;;;6.60;99.90;;;;;;5108334;27;20925;-36
2021/04/17 07:25:17;;;;;;;10.23;6.55;;;6.60;99.90;;;;;;5107718;28;20198;-36
2021/04/17 07:27:55;;;;;;;10.00;6.35;;;6.80;99.90;;;;;;5107590;27;20528;-36
2021/04/17 07:30:33;;;;;;;12.35;7.50;;;7.00;99.90;;;;;;5105028;27;20623;-35
2021/04/17 07:33:14;;;;;;;7.53;6.80;;;6.70;99.90;;;;;;5170122;27;20517;-35
2021/04/17 07:35:53;;;;;;;9.70;6.47;;;6.70;99.90;;;;;;5108135;27;20926;-37
2021/04/17 07:38:35;;;;;;;8.30;6.50;;;6.70;99.90;;;;;;5127894;27;20870;-37
2021/04/17 07:41:07;;;;;;;9.18;6.53;;;7.10;99.90;;;;;;5119093;28;20205;-36
2021/04/17 07:43:48;;;;;;;8.93;6.75;;;7.00;99.90;;;;;;5086459;28;20606;-36
2021/04/17 07:46:29;;;;;;;8.57;5.78;;;6.90;99.90;;;;;;5107646;27;20525;-36
2021/04/17 07:49:10;;;;;;;9.63;6.53;;;7.00;99.90;;;;;;5100037;28;20194;-35
2021/04/17 07:51:59;;;;;;;9.50;6.70;;;7.20;99.90;;;;;;5077912;28;20565;-36
2021/04/17 07:54:27;;;;;;;8.77;5.80;;;7.30;99.90;;;;;;5087676;28;20661;-37
2021/04/17 07:56:54;;;;;;;13.88;7.32;;;7.20;99.90;;;;;;5087646;28;20699;-36
2021/04/17 07:59:24;;;;;;;13.48;6.32;;;7.10;99.90;;;;;;5086449;22;20309;-35
2021/04/17 08:02:04;;;;;;;17.17;8.02;;;7.10;99.90;;;;;;5126828;27;20519;-36
2021/04/17 08:04:31;;;;;;;8.65;6.78;;;6.80;99.90;;;;;;5127809;27;20193;-33
2021/04/17 08:06:59;;;;;;;7.75;6.13;;;6.80;99.90;;;;;;5127964;27;20204;-35
2021/04/17 08:09:28;;;;;;;8.30;7.53;;;6.80;99.90;;;;;;5112510;28;20213;-35
2021/04/17 08:11:57;;;;;;;11.52;6.88;;;6.90;99.90;;;;;;5088573;28;20547;-35
2021/04/17 08:14:44;;;;;;;9.25;6.22;;;7.10;99.90;;;;;;5092385;28;20200;-36
2021/04/17 08:17:19;;;;;;;12.38;6.95;;;7.20;99.90;;;;;;5107848;28;20199;-36
2021/04/17 08:19:46;;;;;;;7.47;6.43;;;7.20;99.90;;;;;;5089875;28;20217;-35
2021/04/17 08:22:13;;;;;;;8.40;6.38;;;7.20;99.90;;;;;;5127059;27;20193;-35
2021/04/17 08:24:40;;;;;;;9.32;7.40;;;7.40;99.90;;;;;;5109334;28;20194;-35
2021/04/17 08:27:07;;;;;;;9.65;5.57;;;7.60;99.90;;;;;;5128409;28;20203;-37
2021/04/17 08:29:54;;;;;;;9.18;5.95;;;7.70;99.90;;;;;;5107954;27;21261;-35
2021/04/17 08:32:29;;;;;;;6.95;5.85;;;7.70;99.90;;;;;;5107281;28;20197;-35
2021/04/17 08:35:02;;;;;;;12.63;6.97;;;7.70;99.90;;;;;;5107404;28;20204;-35
2021/04/17 08:37:30;;;;;;;6.95;5.90;;;7.80;99.90;;;;;;5107597;28;20197;-33
2021/04/17 08:39:58;;;;;;;7.43;6.13;;;8.00;99.90;;;;;;5107662;28;20224;-34
2021/04/17 08:42:45;;;;;;;6.68;5.00;;;8.00;99.90;;;;;;5083576;22;20261;-34
2021/04/17 08:45:16;;;;;;;8.50;5.50;;;7.90;99.90;;;;;;5047097;28;20218;-34
2021/04/17 08:47:50;;;;;;;9.45;6.05;;;7.80;99.90;;;;;;5047410;28;20247;-33
2021/04/17 08:50:40;;;;;;;11.45;6.50;;;8.00;99.90;;;;;;5047533;28;20199;-35
2021/04/17 08:53:11;;;;;;;9.23;6.18;;;8.00;99.90;;;;;;5043463;28;20220;-35
2021/04/17 08:55:46;;;;;;;11.68;6.72;;;8.20;99.90;;;;;;5047040;28;20203;-34
2021/04/17 08:58:18;;;;;;;10.35;6.40;;;8.30;99.90;;;;;;5047009;28;20221;-35
2021/04/17 09:01:08;;;;;;;12.10;5.93;;;8.10;99.90;;;;;;5046919;28;20268;-34
2021/04/17 09:03:37;;;;;;;8.65;5.93;;;8.10;99.90;;;;;;5047121;28;20218;-34
2021/04/17 09:06:05;;;;;;;10.85;5.95;;;8.20;99.90;;;;;;5047031;28;20570;-33
2021/04/17 09:08:31;;;;;;;8.25;6.88;;;8.20;99.90;;;;;;5046692;28;20725;-33
2021/04/17 09:10:58;;;;;;;6.78;5.75;;;8.30;99.90;;;;;;5028690;28;20736;-34
2021/04/17 09:13:35;;;;;;;8.20;6.32;;;8.50;99.90;;;;;;5046823;28;20208;-34
2021/04/17 09:16:05;;;;;;;8.73;6.53;;;8.70;99.90;;;;;;5046913;28;20259;-33
2021/04/17 09:18:43;;;;;;;12.18;6.88;;;8.90;99.90;;;;;;5046963;28;20202;-33
2021/04/17 09:21:32;;;;;;;12.30;6.72;;;8.80;99.90;;;;;;5046926;28;20243;-33
2021/04/17 09:23:59;;;;;;;8.35;6.85;;;9.00;99.90;;;;;;5046593;28;20241;-34
2021/04/17 09:26:39;;;;;;;10.45;6.57;;;9.10;99.90;;;;;;5046555;28;20568;-35
2021/04/17 09:29:24;;;;;;;6.85;5.60;;;9.00;99.90;;;;;;5046409;28;20653;-33
2021/04/17 09:32:04;;;;;;;7.60;5.60;;;8.90;99.90;;;;;;5046424;28;20231;-33
2021/04/17 09:34:38;;;;;;;7.15;5.32;;;9.10;99.90;;;;;;5046716;28;20196;-35
2021/04/17 09:37:11;;;;;;;8.55;6.50;;;9.30;99.90;;;;;;5046352;28;20215;-34
2021/04/17 09:39:45;;;;;;;7.72;6.03;;;9.60;99.90;;;;;;5024020;28;20200;-33
2021/04/17 09:42:12;;;;;;;10.60;6.60;;;9.90;99.90;;;;;;5027284;28;20310;-33
2021/04/17 09:44:42;;;;;;;8.65;5.55;;;10.00;99.90;;;;;;5013212;28;20554;-33
2021/04/17 09:47:14;;;;;;;13.05;6.28;;;9.80;99.90;;;;;;5013032;28;20200;-33
2021/04/17 09:49:44;;;;;;;6.07;5.47;;;10.00;99.90;;;;;;5013135;28;20204;-33
2021/04/17 09:52:18;;;;;;;10.80;5.38;;;10.30;99.90;;;;;;4995481;28;20303;-33
2021/04/17 09:54:46;;;;;;;8.23;5.45;;;10.30;99.90;;;;;;5013131;28;20758;-33
2021/04/17 09:57:13;;;;;;;7.15;4.82;;;10.40;99.90;;;;;;5012923;28;20196;-34
2021/04/17 09:59:52;;;;;;;8.35;5.90;;;10.50;99.90;;;;;;5012769;28;20270;-33
2021/04/17 10:02:25;;;;;;;7.82;4.82;;;11.00;99.90;;;;;;5012912;28;20232;-33
2021/04/17 10:05:00;;;;;;;6.32;4.82;;;10.90;99.90;;;;;;5012732;28;20211;-32
2021/04/17 10:07:27;;;;;;;6.30;5.03;;;10.90;99.90;;;;;;5013824;28;20211;-32
2021/04/17 10:10:01;;;;;;;4.95;4.47;;;11.10;99.90;;;;;;5012348;28;20715;-35
2021/04/17 10:12:28;;;;;;;6.57;4.75;;;11.20;99.90;;;;;;5012440;28;20248;-34
2021/04/17 10:15:20;;;;;;;6.18;4.70;;;11.50;99.90;;;;;;5012181;28;20279;-33
2021/04/17 10:17:48;;;;;;;7.13;4.57;;;11.90;99.90;;;;;;5012033;28;20290;-33
2021/04/17 10:20:17;;;;;;;7.13;4.40;;;12.20;99.90;;;;;;5011427;28;20223;-33
2021/04/17 10:22:50;;;;;;;10.75;6.45;;;12.40;99.90;;;;;;5011016;28;20302;-32
2021/04/17 10:25:34;;;;;;;7.28;4.03;;;12.20;99.90;;;;;;5012363;28;20745;-32
2021/04/17 10:28:11;;;;;;;6.65;4.93;;;11.90;99.90;;;;;;5011570;28;20354;-34
2021/04/17 10:30:39;;;;;;;9.75;6.13;;;11.70;99.90;;;;;;5011706;28;20192;-33
2021/04/17 10:33:15;;;;;;;7.10;4.82;;;11.70;99.90;;;;;;5003191;28;20247;-34
2021/04/17 10:35:44;;;;;;;7.95;5.88;;;11.90;99.90;;;;;;5012070;28;20224;-35
2021/04/17 10:38:23;;;;;;;5.82;4.18;;;12.00;99.90;;;;;;5004664;28;20204;-35
2021/04/17 10:40:50;;;;;;;6.50;3.95;;;12.00;99.90;;;;;;5012273;28;20200;-33
2021/04/17 10:43:18;;;;;;;7.20;5.05;;;11.90;99.90;;;;;;5001620;28;20209;-33
2021/04/17 10:45:47;;;;;;;9.30;5.10;;;12.00;99.90;;;;;;5010598;28;20641;-33
2021/04/17 10:48:17;;;;;;;6.57;3.13;;;12.40;99.90;;;;;;5013206;28;20216;-33
2021/04/17 10:50:59;;;;;;;8.63;4.03;;;12.70;99.90;;;;;;5014144;28;20317;-35
2021/04/17 10:53:29;;;;;;;5.80;3.00;;;13.20;99.90;;;;;;5019261;28;20575;-34
2021/04/17 10:55:58;;;;;;;5.20;3.25;;;13.80;99.90;;;;;;5012597;28;20201;-32
2021/04/17 10:58:27;;;;;;;5.80;3.20;;;14.00;99.90;;;;;;5011515;28;20193;-33
2021/04/17 11:00:56;;;;;;;4.63;3.28;;;13.90;99.90;;;;;;5010261;28;20200;-34
2021/04/17 11:03:24;;;;;;;6.85;3.67;;;13.70;99.90;;;;;;5011064;28;20243;-34
2021/04/17 11:05:52;;;;;;;4.07;3.10;;;13.50;99.90;;;;;;5006533;28;20664;-34
2021/04/17 11:08:23;;;;;;;4.30;3.60;;;13.30;99.90;;;;;;5010204;28;20213;-34
2021/04/17 11:10:50;;;;;;;8.00;2.92;;;13.10;99.90;;;;;;5010916;28;20205;-34
2021/04/17 11:13:33;;;;;;;6.22;3.17;;;13.20;99.90;;;;;;5010647;28;20205;-34
2021/04/17 11:16:00;;;;;;;4.40;3.53;;;13.20;99.90;;;;;;5001523;28;20221;-36
2021/04/17 11:18:33;;;;;;;3.90;3.50;;;13.20;99.90;;;;;;5006396;28;20316;-35
2021/04/17 11:21:03;;;;;;;3.80;3.40;;;13.10;99.90;;;;;;5010568;28;20243;-35
2021/04/17 11:23:41;;;;;;;5.68;4.07;;;13.00;99.90;;;;;;5010406;28;20200;-36
2021/04/17 11:26:11;;;;;;;4.40;3.65;;;12.90;99.90;;;;;;5006819;28;20193;-34
2021/04/17 11:28:40;;;;;;;8.00;3.30;;;12.80;99.90;;;;;;5010011;28;20604;-33
2021/04/17 11:31:09;;;;;;;7.88;3.33;;;12.90;99.90;;;;;;5010478;28;20237;-34
2021/04/17 11:33:36;;;;;;;4.10;3.65;;;13.20;99.90;;;;;;5010698;28;20200;-34
2021/04/17 11:36:04;;;;;;;6.18;3.33;;;13.40;99.90;;;;;;5011749;28;20248;-33
2021/04/17 11:38:31;;;;;;;11.80;3.90;;;13.30;99.90;;;;;;5011361;28;20239;-36
2021/04/17 11:40:58;;;;;;;3.63;3.33;;;13.00;99.90;;;;;;5009970;28;20192;-33
2021/04/17 11:43:25;;;;;;;3.63;3.08;;;12.80;99.90;;;;;;5010616;28;20228;-34
2021/04/17 11:45:51;;;;;;;4.60;3.78;;;12.80;99.90;;;;;;5010576;28;20223;-34
2021/04/17 11:48:19;;;;;;;4.85;3.20;;;13.20;99.90;;;;;;5010773;28;20291;-35
2021/04/17 11:50:46;;;;;;;4.80;3.80;;;13.40;99.90;;;;;;5010540;28;20675;-34
2021/04/17 11:53:16;;;;;;;4.32;3.92;;;13.50;99.90;;;;;;5005965;28;20579;-34
2021/04/17 11:55:43;;;;;;;38.25;28.13;;;13.60;99.90;;;;;;5011342;28;20200;-34
2021/04/17 11:58:09;;;;;;;18.67;15.68;;;13.70;99.90;;;;;;5016962;28;20294;-34
2021/04/17 12:00:36;;;;;;;7.75;4.40;;;13.80;99.90;;;;;;5011252;28;20209;-34
2021/04/17 12:03:03;;;;;;;5.00;3.70;;;13.90;99.90;;;;;;5010160;28;20762;-36
2021/04/17 12:05:29;;;;;;;4.15;3.35;;;14.10;99.90;;;;;;5010361;28;20189;-34
2021/04/17 12:07:56;;;;;;;4.43;3.70;;;14.20;99.90;;;;;;5010093;28;20196;-34
2021/04/17 12:10:24;;;;;;;5.40;3.65;;;14.10;99.90;;;;;;5010353;28;20203;-35
2021/04/17 12:12:51;;;;;;;5.25;4.72;;;14.20;99.90;;;;;;5009150;28;20229;-36
2021/04/17 12:15:18;;;;;;;10.73;4.63;;;14.20;99.90;;;;;;5010412;28;20247;-34
2021/04/17 12:17:45;;;;;;;10.80;5.80;;;14.10;99.90;;;;;;5006954;28;20204;-34
2021/04/17 12:20:12;;;;;;;13.50;9.55;;;14.20;99.90;;;;;;5010093;28;20199;-33
2021/04/17 12:22:39;;;;;;;6.70;5.20;;;14.30;99.90;;;;;;5009814;28;20228;-35
2021/04/17 12:25:08;;;;;;;6.43;3.80;;;14.30;99.90;;;;;;5010872;28;20254;-36
2021/04/17 12:27:36;;;;;;;6.45;4.13;;;14.50;99.90;;;;;;5010527;28;20208;-33
2021/04/17 12:30:06;;;;;;;5.03;3.75;;;14.60;99.90;;;;;;5009442;28;20216;-36
2021/04/17 12:32:33;;;;;;;4.25;3.60;;;14.20;99.90;;;;;;5009733;28;20225;-34
2021/04/17 12:35:00;;;;;;;6.57;3.22;;;14.10;99.90;;;;;;5010100;28;20212;-36
2021/04/17 12:37:28;;;;;;;5.53;3.83;;;14.10;99.90;;;;;;5009611;28;20699;-34
2021/04/17 12:39:54;;;;;;;5.03;4.28;;;14.10;99.90;;;;;;5009751;28;20193;-34
2021/04/17 12:42:21;;;;;;;9.65;7.53;;;14.20;99.90;;;;;;5006929;28;20220;-34
2021/04/17 12:44:49;;;;;;;4.95;3.65;;;14.10;99.90;;;;;;5008427;28;20197;-34
2021/04/17 12:47:15;;;;;;;6.30;3.45;;;14.10;99.90;;;;;;5007080;28;20200;-34
2021/04/17 12:49:42;;;;;;;7.40;3.97;;;14.10;99.90;;;;;;5005228;28;20738;-35
2021/04/17 12:52:09;;;;;;;7.47;3.60;;;14.10;99.90;;;;;;5009299;28;20220;-33
2021/04/17 12:54:36;;;;;;;5.15;3.60;;;14.10;99.90;;;;;;5008425;28;20283;-35
2021/04/17 12:57:03;;;;;;;7.47;4.30;;;14.10;99.90;;;;;;5008410;28;20652;-34
2021/04/17 12:59:30;;;;;;;4.40;3.67;;;14.00;99.90;;;;;;5008922;28;20200;-33
2021/04/17 13:01:58;;;;;;;9.50;3.70;;;14.00;99.90;;;;;;5007225;28;20217;-34
2021/04/17 13:04:25;;;;;;;6.22;3.10;;;13.90;99.90;;;;;;5007823;28;20205;-36
2021/04/17 13:06:52;;;;;;;4.03;3.47;;;14.00;99.90;;;;;;5008921;28;20208;-35